sensor_id;sensor_type;location;lat;lon;timestamp;P1;durP1;ratioP1;P2;durP2;ratioP2
47021;SDS011;32779;52.264;6.154;2023-08-08T00:00:07;9.90;;;3.25;;
47021;SDS011;32779;52.264;6.154;2023-08-08T00:02:34;8.07;;;2.63;;
47021;SDS011;32779;52.264;6.154;2023-08-08T00:05:00;6.45;;;2.80;;
47021;SDS011;32779;52.264;6.154;2023-08-08T00:09:54;6.63;;;2.58;;
47021;SDS011;32779;52.264;6.154;2023-08-08T00:12:20;5.32;;;3.08;;
47021;SDS011;32779;52.264;6.154;2023-08-08T00:17:12;11.70;;;3.70;;
47021;SDS011;32779;52.264;6.154;2023-08-08T00:22:03;8.95;;;3.60;;
47021;SDS011;32779;52.264;6.154;2023-08-08T00:26:54;7.97;;;3.75;;
47021;SDS011;32779;52.264;6.154;2023-08-08T00:31:45;10.43;;;3.63;;
47021;SDS011;32779;52.264;6.154;2023-08-08T00:34:11;9.20;;;4.38;;
47021;SDS011;32779;52.264;6.154;2023-08-08T00:36:36;10.35;;;4.00;;
47021;SDS011;32779;52.264;6.154;2023-08-08T00:41:27;8.35;;;4.10;;
47021;SDS011;32779;52.264;6.154;2023-08-08T00:46:20;18.02;;;4.97;;
47021;SDS011;32779;52.264;6.154;2023-08-08T00:48:46;16.02;;;5.43;;
47021;SDS011;32779;52.264;6.154;2023-08-08T00:51:13;11.95;;;4.43;;
47021;SDS011;32779;52.264;6.154;2023-08-08T00:53:39;10.93;;;4.47;;
47021;SDS011;32779;52.264;6.154;2023-08-08T00:56:04;33.88;;;5.40;;
47021;SDS011;32779;52.264;6.154;2023-08-08T01:00:56;9.50;;;4.57;;
47021;SDS011;32779;52.264;6.154;2023-08-08T01:03:24;14.45;;;4.45;;
47021;SDS011;32779;52.264;6.154;2023-08-08T01:05:53;10.40;;;4.13;;
47021;SDS011;32779;52.264;6.154;2023-08-08T01:08:35;13.40;;;4.20;;
47021;SDS011;32779;52.264;6.154;2023-08-08T01:11:10;9.00;;;4.90;;
47021;SDS011;32779;52.264;6.154;2023-08-08T01:13:38;14.05;;;4.63;;
47021;SDS011;32779;52.264;6.154;2023-08-08T01:16:05;15.98;;;4.93;;
47021;SDS011;32779;52.264;6.154;2023-08-08T01:18:32;10.35;;;4.90;;
47021;SDS011;32779;52.264;6.154;2023-08-08T01:20:59;14.95;;;4.70;;
47021;SDS011;32779;52.264;6.154;2023-08-08T01:23:33;12.38;;;4.72;;
47021;SDS011;32779;52.264;6.154;2023-08-08T01:26:08;9.65;;;4.38;;
47021;SDS011;32779;52.264;6.154;2023-08-08T01:28:34;11.48;;;5.15;;
47021;SDS011;32779;52.264;6.154;2023-08-08T01:33:26;12.60;;;4.20;;
47021;SDS011;32779;52.264;6.154;2023-08-08T01:35:58;16.75;;;5.30;;
47021;SDS011;32779;52.264;6.154;2023-08-08T01:38:31;11.18;;;4.50;;
47021;SDS011;32779;52.264;6.154;2023-08-08T01:41:05;17.67;;;4.55;;
47021;SDS011;32779;52.264;6.154;2023-08-08T01:43:32;16.10;;;4.43;;
47021;SDS011;32779;52.264;6.154;2023-08-08T01:45:59;12.25;;;4.10;;
47021;SDS011;32779;52.264;6.154;2023-08-08T01:48:27;10.07;;;4.32;;
47021;SDS011;32779;52.264;6.154;2023-08-08T01:50:53;10.88;;;4.32;;
47021;SDS011;32779;52.264;6.154;2023-08-08T01:53:18;14.75;;;4.28;;
47021;SDS011;32779;52.264;6.154;2023-08-08T01:55:44;16.45;;;4.80;;
47021;SDS011;32779;52.264;6.154;2023-08-08T02:00:35;14.32;;;4.95;;
47021;SDS011;32779;52.264;6.154;2023-08-08T02:05:27;9.93;;;3.85;;
47021;SDS011;32779;52.264;6.154;2023-08-08T02:07:53;12.07;;;4.10;;
47021;SDS011;32779;52.264;6.154;2023-08-08T02:12:44;15.05;;;4.50;;
47021;SDS011;32779;52.264;6.154;2023-08-08T02:17:37;9.52;;;4.00;;
47021;SDS011;32779;52.264;6.154;2023-08-08T02:20:04;12.27;;;4.20;;
47021;SDS011;32779;52.264;6.154;2023-08-08T02:22:31;12.52;;;4.30;;
47021;SDS011;32779;52.264;6.154;2023-08-08T02:24:57;14.05;;;3.97;;
47021;SDS011;32779;52.264;6.154;2023-08-08T02:27:23;19.40;;;4.95;;
47021;SDS011;32779;52.264;6.154;2023-08-08T02:32:14;11.57;;;3.78;;
47021;SDS011;32779;52.264;6.154;2023-08-08T02:37:05;12.27;;;5.03;;
47021;SDS011;32779;52.264;6.154;2023-08-08T02:39:31;15.75;;;4.78;;
47021;SDS011;32779;52.264;6.154;2023-08-08T02:44:22;13.05;;;4.40;;
47021;SDS011;32779;52.264;6.154;2023-08-08T02:49:13;13.43;;;4.72;;
47021;SDS011;32779;52.264;6.154;2023-08-08T02:51:39;16.77;;;4.35;;
47021;SDS011;32779;52.264;6.154;2023-08-08T02:56:30;13.13;;;4.18;;
47021;SDS011;32779;52.264;6.154;2023-08-08T03:01:22;15.82;;;4.20;;
47021;SDS011;32779;52.264;6.154;2023-08-08T03:03:48;12.80;;;4.38;;
47021;SDS011;32779;52.264;6.154;2023-08-08T03:06:14;9.98;;;4.10;;
47021;SDS011;32779;52.264;6.154;2023-08-08T03:11:05;20.88;;;4.72;;
47021;SDS011;32779;52.264;6.154;2023-08-08T03:13:30;17.30;;;4.63;;
47021;SDS011;32779;52.264;6.154;2023-08-08T03:18:22;12.30;;;4.38;;
47021;SDS011;32779;52.264;6.154;2023-08-08T03:20:48;10.82;;;3.92;;
47021;SDS011;32779;52.264;6.154;2023-08-08T03:23:13;11.57;;;4.80;;
47021;SDS011;32779;52.264;6.154;2023-08-08T03:28:04;15.63;;;4.43;;
47021;SDS011;32779;52.264;6.154;2023-08-08T03:30:30;10.32;;;4.15;;
47021;SDS011;32779;52.264;6.154;2023-08-08T03:32:56;10.73;;;5.10;;
47021;SDS011;32779;52.264;6.154;2023-08-08T03:37:47;13.50;;;4.30;;
47021;SDS011;32779;52.264;6.154;2023-08-08T03:42:39;13.05;;;4.15;;
47021;SDS011;32779;52.264;6.154;2023-08-08T03:45:07;13.05;;;4.05;;
47021;SDS011;32779;52.264;6.154;2023-08-08T03:49:59;18.10;;;4.32;;
47021;SDS011;32779;52.264;6.154;2023-08-08T03:52:25;19.17;;;5.05;;
47021;SDS011;32779;52.264;6.154;2023-08-08T03:54:51;12.57;;;4.47;;
47021;SDS011;32779;52.264;6.154;2023-08-08T03:57:17;16.33;;;4.95;;
47021;SDS011;32779;52.264;6.154;2023-08-08T03:59:42;11.88;;;4.55;;
47021;SDS011;32779;52.264;6.154;2023-08-08T04:02:08;14.88;;;4.20;;
47021;SDS011;32779;52.264;6.154;2023-08-08T04:04:34;13.05;;;4.85;;
47021;SDS011;32779;52.264;6.154;2023-08-08T04:06:59;18.95;;;4.85;;
47021;SDS011;32779;52.264;6.154;2023-08-08T04:09:25;16.45;;;5.07;;
47021;SDS011;32779;52.264;6.154;2023-08-08T04:11:51;16.88;;;4.20;;
47021;SDS011;32779;52.264;6.154;2023-08-08T04:14:16;12.60;;;4.30;;
47021;SDS011;32779;52.264;6.154;2023-08-08T04:19:07;20.10;;;4.25;;
47021;SDS011;32779;52.264;6.154;2023-08-08T04:23:59;13.50;;;4.55;;
47021;SDS011;32779;52.264;6.154;2023-08-08T04:26:25;14.98;;;4.53;;
47021;SDS011;32779;52.264;6.154;2023-08-08T04:28:51;16.55;;;4.22;;
47021;SDS011;32779;52.264;6.154;2023-08-08T04:33:42;8.93;;;4.43;;
47021;SDS011;32779;52.264;6.154;2023-08-08T04:36:08;15.38;;;4.35;;
47021;SDS011;32779;52.264;6.154;2023-08-08T04:38:34;11.65;;;4.60;;
47021;SDS011;32779;52.264;6.154;2023-08-08T04:40:59;11.95;;;4.80;;
47021;SDS011;32779;52.264;6.154;2023-08-08T04:45:52;12.27;;;4.00;;
47021;SDS011;32779;52.264;6.154;2023-08-08T04:50:45;14.18;;;4.20;;
47021;SDS011;32779;52.264;6.154;2023-08-08T04:53:11;9.15;;;4.18;;
47021;SDS011;32779;52.264;6.154;2023-08-08T04:55:37;16.08;;;5.40;;
47021;SDS011;32779;52.264;6.154;2023-08-08T04:58:02;12.88;;;4.82;;
47021;SDS011;32779;52.264;6.154;2023-08-08T05:02:54;15.52;;;3.92;;
47021;SDS011;32779;52.264;6.154;2023-08-08T05:05:19;7.45;;;3.92;;
47021;SDS011;32779;52.264;6.154;2023-08-08T05:07:45;12.63;;;4.22;;
47021;SDS011;32779;52.264;6.154;2023-08-08T05:10:11;10.70;;;4.22;;
47021;SDS011;32779;52.264;6.154;2023-08-08T05:15:02;11.38;;;3.90;;
47021;SDS011;32779;52.264;6.154;2023-08-08T05:17:29;14.48;;;4.63;;
47021;SDS011;32779;52.264;6.154;2023-08-08T05:19:57;13.18;;;4.43;;
47021;SDS011;32779;52.264;6.154;2023-08-08T05:22:22;9.52;;;4.03;;
47021;SDS011;32779;52.264;6.154;2023-08-08T05:27:13;15.50;;;4.38;;
47021;SDS011;32779;52.264;6.154;2023-08-08T05:32:06;9.60;;;3.85;;
47021;SDS011;32779;52.264;6.154;2023-08-08T05:34:35;11.68;;;4.70;;
47021;SDS011;32779;52.264;6.154;2023-08-08T05:37:01;10.60;;;3.97;;
47021;SDS011;32779;52.264;6.154;2023-08-08T05:39:27;9.70;;;3.60;;
47021;SDS011;32779;52.264;6.154;2023-08-08T05:41:52;13.50;;;4.18;;
47021;SDS011;32779;52.264;6.154;2023-08-08T05:46:44;12.65;;;3.58;;
47021;SDS011;32779;52.264;6.154;2023-08-08T05:51:35;9.40;;;3.17;;
47021;SDS011;32779;52.264;6.154;2023-08-08T05:54:01;8.15;;;3.13;;
47021;SDS011;32779;52.264;6.154;2023-08-08T05:56:33;7.80;;;3.35;;
47021;SDS011;32779;52.264;6.154;2023-08-08T05:59:01;8.73;;;3.28;;
47021;SDS011;32779;52.264;6.154;2023-08-08T06:01:26;13.52;;;3.47;;
47021;SDS011;32779;52.264;6.154;2023-08-08T06:03:52;11.20;;;2.78;;
47021;SDS011;32779;52.264;6.154;2023-08-08T06:08:43;13.10;;;3.80;;
47021;SDS011;32779;52.264;6.154;2023-08-08T06:11:09;12.82;;;3.58;;
47021;SDS011;32779;52.264;6.154;2023-08-08T06:16:01;7.80;;;3.10;;
47021;SDS011;32779;52.264;6.154;2023-08-08T06:18:28;16.15;;;3.95;;
47021;SDS011;32779;52.264;6.154;2023-08-08T06:20:54;12.18;;;3.38;;
47021;SDS011;32779;52.264;6.154;2023-08-08T06:25:45;11.52;;;2.80;;
47021;SDS011;32779;52.264;6.154;2023-08-08T06:30:36;14.27;;;3.53;;
47021;SDS011;32779;52.264;6.154;2023-08-08T06:33:02;12.43;;;3.10;;
47021;SDS011;32779;52.264;6.154;2023-08-08T06:37:53;7.00;;;2.67;;
47021;SDS011;32779;52.264;6.154;2023-08-08T06:42:46;6.63;;;2.35;;
47021;SDS011;32779;52.264;6.154;2023-08-08T06:47:37;6.55;;;2.17;;
47021;SDS011;32779;52.264;6.154;2023-08-08T06:52:28;10.15;;;2.17;;
47021;SDS011;32779;52.264;6.154;2023-08-08T06:57:19;8.07;;;1.80;;
47021;SDS011;32779;52.264;6.154;2023-08-08T07:02:15;5.22;;;1.80;;
47021;SDS011;32779;52.264;6.154;2023-08-08T07:04:41;6.18;;;1.88;;
47021;SDS011;32779;52.264;6.154;2023-08-08T07:09:32;5.00;;;1.40;;
47021;SDS011;32779;52.264;6.154;2023-08-08T07:11:58;6.20;;;1.70;;
47021;SDS011;32779;52.264;6.154;2023-08-08T07:14:24;8.63;;;1.60;;
47021;SDS011;32779;52.264;6.154;2023-08-08T07:19:15;11.07;;;1.95;;
47021;SDS011;32779;52.264;6.154;2023-08-08T07:21:41;9.52;;;1.70;;
47021;SDS011;32779;52.264;6.154;2023-08-08T07:26:32;4.55;;;1.50;;
47021;SDS011;32779;52.264;6.154;2023-08-08T07:28:58;7.32;;;1.30;;
47021;SDS011;32779;52.264;6.154;2023-08-08T07:31:23;4.70;;;1.33;;
47021;SDS011;32779;52.264;6.154;2023-08-08T07:33:49;6.80;;;1.33;;
47021;SDS011;32779;52.264;6.154;2023-08-08T07:38:40;2.80;;;1.05;;
47021;SDS011;32779;52.264;6.154;2023-08-08T07:41:06;5.55;;;1.35;;
47021;SDS011;32779;52.264;6.154;2023-08-08T07:43:32;4.82;;;1.30;;
47021;SDS011;32779;52.264;6.154;2023-08-08T07:45:58;6.30;;;1.20;;
47021;SDS011;32779;52.264;6.154;2023-08-08T07:50:49;7.10;;;0.98;;
47021;SDS011;32779;52.264;6.154;2023-08-08T07:53:15;3.70;;;1.17;;
47021;SDS011;32779;52.264;6.154;2023-08-08T07:55:40;4.03;;;1.20;;
47021;SDS011;32779;52.264;6.154;2023-08-08T07:58:06;6.85;;;1.33;;
47021;SDS011;32779;52.264;6.154;2023-08-08T08:00:32;6.35;;;1.10;;
47021;SDS011;32779;52.264;6.154;2023-08-08T08:02:57;5.13;;;0.98;;
47021;SDS011;32779;52.264;6.154;2023-08-08T08:05:23;3.95;;;0.95;;
47021;SDS011;32779;52.264;6.154;2023-08-08T08:07:48;4.90;;;1.15;;
47021;SDS011;32779;52.264;6.154;2023-08-08T08:10:14;5.60;;;1.30;;
47021;SDS011;32779;52.264;6.154;2023-08-08T08:12:40;2.53;;;0.77;;
47021;SDS011;32779;52.264;6.154;2023-08-08T08:15:06;4.65;;;0.85;;
47021;SDS011;32779;52.264;6.154;2023-08-08T08:17:33;3.20;;;0.80;;
47021;SDS011;32779;52.264;6.154;2023-08-08T08:22:24;6.90;;;1.02;;
47021;SDS011;32779;52.264;6.154;2023-08-08T08:27:15;3.25;;;1.15;;
47021;SDS011;32779;52.264;6.154;2023-08-08T08:29:43;4.93;;;0.85;;
47021;SDS011;32779;52.264;6.154;2023-08-08T08:34:34;3.40;;;0.82;;
47021;SDS011;32779;52.264;6.154;2023-08-08T08:36:59;4.70;;;1.35;;
47021;SDS011;32779;52.264;6.154;2023-08-08T08:39:25;3.95;;;1.00;;
47021;SDS011;32779;52.264;6.154;2023-08-08T08:41:58;3.85;;;0.82;;
47021;SDS011;32779;52.264;6.154;2023-08-08T08:44:30;5.80;;;1.00;;
47021;SDS011;32779;52.264;6.154;2023-08-08T08:46:59;5.47;;;1.10;;
47021;SDS011;32779;52.264;6.154;2023-08-08T08:49:30;2.75;;;0.85;;
47021;SDS011;32779;52.264;6.154;2023-08-08T08:52:00;4.57;;;0.70;;
47021;SDS011;32779;52.264;6.154;2023-08-08T08:54:26;4.63;;;0.90;;
47021;SDS011;32779;52.264;6.154;2023-08-08T08:56:54;5.70;;;0.80;;
47021;SDS011;32779;52.264;6.154;2023-08-08T08:59:21;3.05;;;0.73;;
47021;SDS011;32779;52.264;6.154;2023-08-08T09:01:46;3.65;;;0.50;;
47021;SDS011;32779;52.264;6.154;2023-08-08T09:04:13;4.30;;;1.05;;
47021;SDS011;32779;52.264;6.154;2023-08-08T09:06:42;2.25;;;0.90;;
47021;SDS011;32779;52.264;6.154;2023-08-08T09:09:08;3.83;;;0.90;;
47021;SDS011;32779;52.264;6.154;2023-08-08T09:11:34;8.15;;;1.02;;
47021;SDS011;32779;52.264;6.154;2023-08-08T09:16:27;5.63;;;0.60;;
47021;SDS011;32779;52.264;6.154;2023-08-08T09:21:18;6.40;;;0.80;;
47021;SDS011;32779;52.264;6.154;2023-08-08T09:23:44;2.70;;;0.60;;
47021;SDS011;32779;52.264;6.154;2023-08-08T09:26:09;2.90;;;0.77;;
47021;SDS011;32779;52.264;6.154;2023-08-08T09:28:37;2.72;;;0.88;;
47021;SDS011;32779;52.264;6.154;2023-08-08T09:33:29;2.15;;;0.60;;
47021;SDS011;32779;52.264;6.154;2023-08-08T09:35:54;4.65;;;0.60;;
47021;SDS011;32779;52.264;6.154;2023-08-08T09:40:46;4.57;;;1.00;;
47021;SDS011;32779;52.264;6.154;2023-08-08T09:45:38;3.45;;;0.65;;
47021;SDS011;32779;52.264;6.154;2023-08-08T09:48:06;3.78;;;1.02;;
47021;SDS011;32779;52.264;6.154;2023-08-08T09:52:58;4.78;;;0.60;;
47021;SDS011;32779;52.264;6.154;2023-08-08T09:55:24;2.15;;;0.60;;
47021;SDS011;32779;52.264;6.154;2023-08-08T09:57:50;0.93;;;0.38;;
47021;SDS011;32779;52.264;6.154;2023-08-08T10:00:17;3.33;;;0.68;;
47021;SDS011;32779;52.264;6.154;2023-08-08T10:02:46;2.38;;;0.70;;
47021;SDS011;32779;52.264;6.154;2023-08-08T10:05:12;1.38;;;0.50;;
47021;SDS011;32779;52.264;6.154;2023-08-08T10:07:40;1.88;;;0.57;;
47021;SDS011;32779;52.264;6.154;2023-08-08T10:10:06;3.10;;;0.77;;
47021;SDS011;32779;52.264;6.154;2023-08-08T10:12:36;0.80;;;0.32;;
47021;SDS011;32779;52.264;6.154;2023-08-08T10:15:08;1.83;;;0.60;;
47021;SDS011;32779;52.264;6.154;2023-08-08T10:17:37;5.90;;;0.98;;
47021;SDS011;32779;52.264;6.154;2023-08-08T10:20:04;2.25;;;0.65;;
47021;SDS011;32779;52.264;6.154;2023-08-08T10:22:46;1.88;;;0.70;;
47021;SDS011;32779;52.264;6.154;2023-08-08T10:25:19;1.58;;;0.60;;
47021;SDS011;32779;52.264;6.154;2023-08-08T10:27:48;1.60;;;0.50;;
47021;SDS011;32779;52.264;6.154;2023-08-08T10:32:41;3.17;;;0.50;;
47021;SDS011;32779;52.264;6.154;2023-08-08T10:35:13;4.90;;;0.80;;
47021;SDS011;32779;52.264;6.154;2023-08-08T10:40:06;3.08;;;0.88;;
47021;SDS011;32779;52.264;6.154;2023-08-08T10:42:33;2.13;;;0.50;;
47021;SDS011;32779;52.264;6.154;2023-08-08T10:45:10;1.92;;;0.63;;
47021;SDS011;32779;52.264;6.154;2023-08-08T10:47:38;0.85;;;0.60;;
47021;SDS011;32779;52.264;6.154;2023-08-08T10:50:06;2.63;;;0.77;;
47021;SDS011;32779;52.264;6.154;2023-08-08T10:55:23;2.88;;;0.60;;
47021;SDS011;32779;52.264;6.154;2023-08-08T10:58:07;1.75;;;0.60;;
47021;SDS011;32779;52.264;6.154;2023-08-08T11:00:35;6.75;;;0.47;;
47021;SDS011;32779;52.264;6.154;2023-08-08T11:03:02;1.95;;;1.00;;
47021;SDS011;32779;52.264;6.154;2023-08-08T11:05:32;1.38;;;0.40;;
47021;SDS011;32779;52.264;6.154;2023-08-08T11:07:59;2.78;;;0.60;;
47021;SDS011;32779;52.264;6.154;2023-08-08T11:10:25;0.70;;;0.45;;
47021;SDS011;32779;52.264;6.154;2023-08-08T11:12:59;1.85;;;0.60;;
47021;SDS011;32779;52.264;6.154;2023-08-08T11:15:29;2.97;;;0.60;;
47021;SDS011;32779;52.264;6.154;2023-08-08T11:17:56;1.88;;;0.60;;
47021;SDS011;32779;52.264;6.154;2023-08-08T11:20:23;1.45;;;0.70;;
47021;SDS011;32779;52.264;6.154;2023-08-08T11:22:52;1.75;;;0.40;;
47021;SDS011;32779;52.264;6.154;2023-08-08T11:25:19;0.70;;;0.35;;
47021;SDS011;32779;52.264;6.154;2023-08-08T11:27:53;2.65;;;1.02;;
47021;SDS011;32779;52.264;6.154;2023-08-08T11:30:20;1.50;;;0.50;;
47021;SDS011;32779;52.264;6.154;2023-08-08T11:32:47;1.33;;;0.52;;
47021;SDS011;32779;52.264;6.154;2023-08-08T11:35:17;1.20;;;0.40;;
47021;SDS011;32779;52.264;6.154;2023-08-08T11:37:46;1.48;;;0.60;;
47021;SDS011;32779;52.264;6.154;2023-08-08T11:40:13;0.68;;;0.50;;
47021;SDS011;32779;52.264;6.154;2023-08-08T11:42:40;1.85;;;0.52;;
47021;SDS011;32779;52.264;6.154;2023-08-08T11:45:10;1.98;;;0.70;;
47021;SDS011;32779;52.264;6.154;2023-08-08T11:47:39;1.65;;;0.50;;
47021;SDS011;32779;52.264;6.154;2023-08-08T11:50:06;2.55;;;0.40;;
47021;SDS011;32779;52.264;6.154;2023-08-08T11:52:34;2.28;;;0.63;;
47021;SDS011;32779;52.264;6.154;2023-08-08T11:55:00;0.52;;;0.40;;
47021;SDS011;32779;52.264;6.154;2023-08-08T11:57:26;1.85;;;0.50;;
47021;SDS011;32779;52.264;6.154;2023-08-08T11:59:56;1.95;;;0.50;;
47021;SDS011;32779;52.264;6.154;2023-08-08T12:02:22;4.82;;;1.13;;
47021;SDS011;32779;52.264;6.154;2023-08-08T12:04:52;1.38;;;0.63;;
47021;SDS011;32779;52.264;6.154;2023-08-08T12:07:17;3.67;;;0.75;;
47021;SDS011;32779;52.264;6.154;2023-08-08T12:09:46;1.55;;;0.68;;
47021;SDS011;32779;52.264;6.154;2023-08-08T12:12:12;3.35;;;0.73;;
47021;SDS011;32779;52.264;6.154;2023-08-08T12:14:39;4.13;;;0.50;;
47021;SDS011;32779;52.264;6.154;2023-08-08T12:17:06;0.57;;;0.45;;
47021;SDS011;32779;52.264;6.154;2023-08-08T12:19:33;2.85;;;0.80;;
47021;SDS011;32779;52.264;6.154;2023-08-08T12:21:59;0.82;;;0.43;;
47021;SDS011;32779;52.264;6.154;2023-08-08T12:24:25;2.60;;;0.50;;
47021;SDS011;32779;52.264;6.154;2023-08-08T12:26:51;1.83;;;0.60;;
47021;SDS011;32779;52.264;6.154;2023-08-08T12:29:16;2.45;;;0.50;;
47021;SDS011;32779;52.264;6.154;2023-08-08T12:31:42;1.50;;;0.50;;
47021;SDS011;32779;52.264;6.154;2023-08-08T12:34:08;1.88;;;0.80;;
47021;SDS011;32779;52.264;6.154;2023-08-08T12:36:34;3.55;;;0.73;;
47021;SDS011;32779;52.264;6.154;2023-08-08T12:38:59;1.60;;;0.65;;
47021;SDS011;32779;52.264;6.154;2023-08-08T12:41:25;5.88;;;0.60;;
47021;SDS011;32779;52.264;6.154;2023-08-08T12:43:51;4.63;;;0.90;;
47021;SDS011;32779;52.264;6.154;2023-08-08T12:46:17;1.08;;;0.60;;
47021;SDS011;32779;52.264;6.154;2023-08-08T12:48:42;1.35;;;0.70;;
47021;SDS011;32779;52.264;6.154;2023-08-08T12:51:09;1.05;;;0.55;;
47021;SDS011;32779;52.264;6.154;2023-08-08T12:53:35;4.15;;;0.73;;
47021;SDS011;32779;52.264;6.154;2023-08-08T12:56:01;2.08;;;0.65;;
47021;SDS011;32779;52.264;6.154;2023-08-08T12:58:27;1.63;;;0.50;;
47021;SDS011;32779;52.264;6.154;2023-08-08T13:00:52;0.95;;;0.63;;
47021;SDS011;32779;52.264;6.154;2023-08-08T13:03:18;1.40;;;0.50;;
47021;SDS011;32779;52.264;6.154;2023-08-08T13:05:44;0.88;;;0.47;;
47021;SDS011;32779;52.264;6.154;2023-08-08T13:08:09;4.97;;;0.80;;
47021;SDS011;32779;52.264;6.154;2023-08-08T13:10:35;1.55;;;0.70;;
47021;SDS011;32779;52.264;6.154;2023-08-08T13:13:01;4.50;;;0.70;;
47021;SDS011;32779;52.264;6.154;2023-08-08T13:15:27;3.53;;;0.70;;
47021;SDS011;32779;52.264;6.154;2023-08-08T13:17:52;2.63;;;0.60;;
47021;SDS011;32779;52.264;6.154;2023-08-08T13:20:18;2.47;;;0.47;;
47021;SDS011;32779;52.264;6.154;2023-08-08T13:22:44;1.17;;;0.45;;
47021;SDS011;32779;52.264;6.154;2023-08-08T13:25:09;1.75;;;0.82;;
47021;SDS011;32779;52.264;6.154;2023-08-08T13:27:35;3.83;;;0.70;;
47021;SDS011;32779;52.264;6.154;2023-08-08T13:30:02;1.85;;;0.57;;
47021;SDS011;32779;52.264;6.154;2023-08-08T13:32:29;4.38;;;1.02;;
47021;SDS011;32779;52.264;6.154;2023-08-08T13:34:54;3.95;;;0.60;;
47021;SDS011;32779;52.264;6.154;2023-08-08T13:37:20;2.08;;;0.70;;
47021;SDS011;32779;52.264;6.154;2023-08-08T13:39:45;3.00;;;0.80;;
47021;SDS011;32779;52.264;6.154;2023-08-08T13:42:11;1.75;;;0.60;;
47021;SDS011;32779;52.264;6.154;2023-08-08T13:44:37;2.05;;;0.60;;
47021;SDS011;32779;52.264;6.154;2023-08-08T13:47:02;2.30;;;0.85;;
47021;SDS011;32779;52.264;6.154;2023-08-08T13:49:28;3.15;;;0.85;;
47021;SDS011;32779;52.264;6.154;2023-08-08T13:51:54;2.20;;;0.60;;
47021;SDS011;32779;52.264;6.154;2023-08-08T13:54:20;2.90;;;0.60;;
47021;SDS011;32779;52.264;6.154;2023-08-08T13:56:45;2.58;;;0.70;;
47021;SDS011;32779;52.264;6.154;2023-08-08T13:59:11;0.73;;;0.50;;
47021;SDS011;32779;52.264;6.154;2023-08-08T14:01:37;3.10;;;0.60;;
47021;SDS011;32779;52.264;6.154;2023-08-08T14:04:03;5.00;;;1.38;;
47021;SDS011;32779;52.264;6.154;2023-08-08T14:06:29;5.07;;;0.88;;
47021;SDS011;32779;52.264;6.154;2023-08-08T14:08:55;4.18;;;0.70;;
47021;SDS011;32779;52.264;6.154;2023-08-08T14:11:21;3.15;;;0.73;;
47021;SDS011;32779;52.264;6.154;2023-08-08T14:13:47;3.25;;;0.63;;
47021;SDS011;32779;52.264;6.154;2023-08-08T14:16:12;1.67;;;0.60;;
47021;SDS011;32779;52.264;6.154;2023-08-08T14:18:38;10.35;;;0.80;;
47021;SDS011;32779;52.264;6.154;2023-08-08T14:21:04;2.35;;;0.47;;
47021;SDS011;32779;52.264;6.154;2023-08-08T14:23:30;5.65;;;1.23;;
47021;SDS011;32779;52.264;6.154;2023-08-08T14:25:56;1.65;;;0.60;;
47021;SDS011;32779;52.264;6.154;2023-08-08T14:28:21;4.68;;;0.70;;
47021;SDS011;32779;52.264;6.154;2023-08-08T14:30:47;1.75;;;0.55;;
47021;SDS011;32779;52.264;6.154;2023-08-08T14:33:14;4.43;;;0.90;;
47021;SDS011;32779;52.264;6.154;2023-08-08T14:35:40;8.40;;;0.93;;
47021;SDS011;32779;52.264;6.154;2023-08-08T14:38:06;3.00;;;1.10;;
47021;SDS011;32779;52.264;6.154;2023-08-08T14:40:32;1.90;;;0.68;;
47021;SDS011;32779;52.264;6.154;2023-08-08T14:42:59;1.90;;;0.70;;
47021;SDS011;32779;52.264;6.154;2023-08-08T14:45:26;1.38;;;0.50;;
47021;SDS011;32779;52.264;6.154;2023-08-08T14:47:52;3.35;;;0.77;;
47021;SDS011;32779;52.264;6.154;2023-08-08T14:50:17;2.53;;;0.60;;
47021;SDS011;32779;52.264;6.154;2023-08-08T14:52:43;4.10;;;0.82;;
47021;SDS011;32779;52.264;6.154;2023-08-08T14:55:09;7.57;;;0.88;;
47021;SDS011;32779;52.264;6.154;2023-08-08T15:00:01;1.63;;;1.10;;
47021;SDS011;32779;52.264;6.154;2023-08-08T15:02:27;2.47;;;0.73;;
47021;SDS011;32779;52.264;6.154;2023-08-08T15:07:19;3.08;;;0.60;;
47021;SDS011;32779;52.264;6.154;2023-08-08T15:09:45;4.60;;;1.20;;
47021;SDS011;32779;52.264;6.154;2023-08-08T15:14:39;1.70;;;0.60;;
47021;SDS011;32779;52.264;6.154;2023-08-08T15:19:30;2.92;;;0.88;;
47021;SDS011;32779;52.264;6.154;2023-08-08T15:21:56;2.97;;;1.00;;
47021;SDS011;32779;52.264;6.154;2023-08-08T15:24:22;5.50;;;1.00;;
47021;SDS011;32779;52.264;6.154;2023-08-08T15:29:13;4.28;;;1.20;;
47021;SDS011;32779;52.264;6.154;2023-08-08T15:31:38;2.97;;;0.95;;
47021;SDS011;32779;52.264;6.154;2023-08-08T15:34:04;3.20;;;1.00;;
47021;SDS011;32779;52.264;6.154;2023-08-08T15:36:31;2.88;;;0.90;;
47021;SDS011;32779;52.264;6.154;2023-08-08T15:41:22;3.67;;;1.00;;
47021;SDS011;32779;52.264;6.154;2023-08-08T15:43:47;1.70;;;0.82;;
47021;SDS011;32779;52.264;6.154;2023-08-08T15:48:39;2.50;;;0.93;;
47021;SDS011;32779;52.264;6.154;2023-08-08T15:53:31;4.07;;;0.90;;
47021;SDS011;32779;52.264;6.154;2023-08-08T15:55:58;4.55;;;0.95;;
47021;SDS011;32779;52.264;6.154;2023-08-08T16:00:50;2.58;;;0.63;;
47021;SDS011;32779;52.264;6.154;2023-08-08T16:03:15;3.45;;;1.08;;
47021;SDS011;32779;52.264;6.154;2023-08-08T16:05:41;8.07;;;0.80;;
47021;SDS011;32779;52.264;6.154;2023-08-08T16:08:06;2.95;;;1.10;;
47021;SDS011;32779;52.264;6.154;2023-08-08T16:10:32;3.28;;;0.93;;
47021;SDS011;32779;52.264;6.154;2023-08-08T16:12:58;2.15;;;1.00;;
47021;SDS011;32779;52.264;6.154;2023-08-08T16:15:24;5.30;;;0.85;;
47021;SDS011;32779;52.264;6.154;2023-08-08T16:20:16;4.13;;;0.90;;
47021;SDS011;32779;52.264;6.154;2023-08-08T16:22:41;3.10;;;0.90;;
47021;SDS011;32779;52.264;6.154;2023-08-08T16:25:07;2.47;;;1.00;;
47021;SDS011;32779;52.264;6.154;2023-08-08T16:27:33;3.95;;;1.13;;
47021;SDS011;32779;52.264;6.154;2023-08-08T16:29:59;2.67;;;0.82;;
47021;SDS011;32779;52.264;6.154;2023-08-08T16:34:51;3.67;;;0.80;;
47021;SDS011;32779;52.264;6.154;2023-08-08T16:37:17;3.47;;;0.98;;
47021;SDS011;32779;52.264;6.154;2023-08-08T16:42:08;1.77;;;0.90;;
47021;SDS011;32779;52.264;6.154;2023-08-08T16:44:34;1.75;;;0.60;;
47021;SDS011;32779;52.264;6.154;2023-08-08T16:47:00;2.65;;;0.88;;
47021;SDS011;32779;52.264;6.154;2023-08-08T16:49:26;3.45;;;0.90;;
47021;SDS011;32779;52.264;6.154;2023-08-08T16:54:18;5.65;;;0.93;;
47021;SDS011;32779;52.264;6.154;2023-08-08T16:56:44;3.58;;;1.00;;
47021;SDS011;32779;52.264;6.154;2023-08-08T17:01:35;2.63;;;0.80;;
47021;SDS011;32779;52.264;6.154;2023-08-08T17:04:05;2.17;;;0.90;;
47021;SDS011;32779;52.264;6.154;2023-08-08T17:08:57;4.78;;;0.80;;
47021;SDS011;32779;52.264;6.154;2023-08-08T17:11:24;5.13;;;1.30;;
47021;SDS011;32779;52.264;6.154;2023-08-08T17:16:15;3.13;;;1.13;;
47021;SDS011;32779;52.264;6.154;2023-08-08T17:18:45;4.05;;;0.70;;
47021;SDS011;32779;52.264;6.154;2023-08-08T17:21:11;3.25;;;0.70;;
47021;SDS011;32779;52.264;6.154;2023-08-08T17:26:02;1.83;;;0.80;;
47021;SDS011;32779;52.264;6.154;2023-08-08T17:28:28;3.33;;;0.95;;
47021;SDS011;32779;52.264;6.154;2023-08-08T17:33:20;5.22;;;1.30;;
47021;SDS011;32779;52.264;6.154;2023-08-08T17:35:46;5.85;;;1.15;;
47021;SDS011;32779;52.264;6.154;2023-08-08T17:40:37;5.78;;;1.60;;
47021;SDS011;32779;52.264;6.154;2023-08-08T17:45:28;3.70;;;1.23;;
47021;SDS011;32779;52.264;6.154;2023-08-08T17:50:20;5.13;;;1.27;;
47021;SDS011;32779;52.264;6.154;2023-08-08T17:52:45;3.80;;;1.30;;
47021;SDS011;32779;52.264;6.154;2023-08-08T17:57:36;1.98;;;0.90;;
47021;SDS011;32779;52.264;6.154;2023-08-08T18:02:28;5.10;;;1.67;;
47021;SDS011;32779;52.264;6.154;2023-08-08T18:07:19;3.67;;;1.30;;
47021;SDS011;32779;52.264;6.154;2023-08-08T18:09:46;2.58;;;1.27;;